Time;durP1;ratioP1;P1;durP2;ratioP2;P2;SDS_P1;SDS_P2;PMS_P1;PMS_P2;Temp;Humidity;BMP_temperature;BMP_pressure;BME280_temperature;BME280_humidity;BME280_pressure;Samples;Min_cycle;Max_cycle;Signal;HPM_P1;HPM_P2
2023/10/07 00:01:50;;;;;;;10.15;4.20;;;;;;;10.21;91.92;101397.63;4879061;29;20170;-66
2023/10/07 00:04:55;;;;;;;7.25;4.10;;;;;;;10.25;92.01;101403.56;4878836;29;20052;-66
2023/10/07 00:08:12;;;;;;;5.65;3.30;;;;;;;10.21;92.30;101396.72;4878747;29;20478;-66
2023/10/07 00:11:16;;;;;;;8.45;3.70;;;;;;;10.21;91.58;101387.16;4878211;29;20108;-66
2023/10/07 00:14:20;;;;;;;;;;;;;;;10.22;91.91;101388.00;4867736;29;20132;-66
2023/10/07 00:17:24;;;;;;;8.05;4.32;;;;;;;10.21;91.67;101391.50;4878878;29;19931;-66
2023/10/07 00:20:29;;;;;;;8.70;3.90;;;;;;;10.25;91.39;101399.19;4878738;29;20110;-66
2023/10/07 00:23:35;;;;;;;10.95;3.90;;;;;;;10.27;91.70;101395.69;4878763;29;20048;-66
2023/10/07 00:26:38;;;;;;;7.68;3.75;;;;;;;10.19;92.03;101388.13;4878592;29;20052;-66
2023/10/07 00:29:53;;;;;;;9.77;4.35;;;;;;;10.15;91.38;101392.59;4878708;29;20051;-66
2023/10/07 00:32:58;;;;;;;8.35;3.75;;;;;;;10.17;91.35;101390.78;4878548;29;20068;-67
2023/10/07 00:36:05;;;;;;;8.35;3.47;;;;;;;10.08;91.67;101385.03;4867008;29;20101;-66
2023/10/07 00:39:09;;;;;;;6.20;3.50;;;;;;;10.07;91.95;101384.19;4878826;29;20121;-66
2023/10/07 00:42:13;;;;;;;8.65;3.88;;;;;;;10.08;91.76;101387.66;4878516;29;20052;-67
2023/10/07 00:45:16;;;;;;;8.70;4.07;;;;;;;10.03;92.04;101382.59;4866957;29;20574;-66
2023/10/07 00:48:21;;;;;;;9.70;4.82;;;;;;;10.04;92.46;101368.63;4878447;29;20103;-66
2023/10/07 00:51:33;;;;;;;12.95;4.50;;;;;;;10.04;91.79;101373.84;4878303;29;20052;-67
2023/10/07 00:58:03;;;;;;;9.15;3.92;;;;;;;9.97;92.03;101394.13;4866878;29;20498;-67
2023/10/07 01:01:10;;;;;;;13.18;3.80;;;;;;;9.92;92.36;101392.56;4878405;29;20414;-66
2023/10/07 01:04:15;;;;;;;7.93;3.58;;;;;;;9.93;91.63;101394.28;4878272;29;20080;-66
2023/10/07 01:07:19;;;;;;;13.05;4.18;;;;;;;9.93;91.72;101384.69;4878386;29;20120;-66
2023/10/07 01:10:27;;;;;;;9.40;3.72;;;;;;;9.97;91.99;101388.88;4878225;29;20128;-67
2023/10/07 01:13:31;;;;;;;9.10;3.83;;;;;;;9.95;91.52;101389.84;4878350;29;20060;-66
2023/10/07 01:16:40;;;;;;;;;;;;;;;9.87;91.52;101386.66;4878736;29;20044;-66
2023/10/07 01:19:52;;;;;;;10.00;3.92;;;;;;;9.83;91.93;101391.16;4878461;29;19964;-66
2023/10/07 01:23:04;;;;;;;9.65;3.70;;;;;;;9.82;91.69;101383.34;4881932;29;20441;-66
2023/10/07 01:26:21;;;;;;;8.15;4.25;;;;;;;9.74;92.01;101386.25;4881880;29;20055;-66
2023/10/07 01:29:28;;;;;;;11.57;4.10;;;;;;;9.67;92.82;101387.38;4870103;29;20052;-66
2023/10/07 01:32:32;;;;;;;12.95;4.30;;;;;;;9.63;92.90;101389.22;4881927;29;20051;-67
2023/10/07 01:35:39;;;;;;;11.02;4.30;;;;;;;9.63;92.64;101389.22;4870013;29;20047;-67
2023/10/07 01:38:51;;;;;;;6.25;3.47;;;;;;;9.65;92.01;101394.41;4870046;29;20417;-67
2023/10/07 01:41:54;;;;;;;11.77;4.93;;;;;;;9.65;92.57;101381.34;4881522;29;20060;-66
2023/10/07 01:45:08;;;;;;;;;;;;;;;9.66;92.09;101383.88;4881941;29;20100;-66
2023/10/07 01:48:12;;;;;;;7.20;4.43;;;;;;;9.64;91.90;101380.50;4881407;29;19923;-66
2023/10/07 01:51:15;;;;;;;6.82;3.58;;;;;;;9.64;91.77;101374.44;4881398;29;20417;-66
2023/10/07 01:54:20;;;;;;;10.48;3.97;;;;;;;9.54;92.74;101377.34;4869743;29;20048;-66
2023/10/07 01:57:24;;;;;;;10.00;3.80;;;;;;;9.58;92.92;101375.50;4869755;29;20104;-66
2023/10/07 02:03:46;;;;;;;8.07;3.85;;;;;;;9.52;92.53;101366.09;4881401;29;20047;-66
2023/10/07 02:06:52;;;;;;;9.57;3.80;;;;;;;9.51;92.80;101372.25;4881125;29;20044;-66
2023/10/07 02:09:57;;;;;;;10.48;4.28;;;;;;;9.59;92.52;101365.88;4880928;29;20044;-66
2023/10/07 02:13:01;;;;;;;7.78;3.60;;;;;;;9.62;92.57;101365.78;4869206;29;20112;-66
2023/10/07 02:16:06;;;;;;;6.53;3.60;;;;;;;9.62;92.13;101361.41;4869503;29;20088;-66
2023/10/07 02:19:14;;;;;;;6.90;3.67;;;;;;;9.57;92.00;101362.47;4880847;29;20148;-67
2023/10/07 02:22:28;;;;;;;7.35;3.45;;;;;;;9.50;92.29;101367.91;4869469;29;20056;-66
2023/10/07 02:25:31;;;;;;;8.93;3.67;;;;;;;9.48;92.22;101376.72;4869368;29;20089;-67
2023/10/07 02:28:35;;;;;;;11.90;4.30;;;;;;;9.47;92.15;101383.66;4880704;29;20469;-67
2023/10/07 02:31:44;;;;;;;8.00;3.72;;;;;;;9.47;92.44;101383.66;4880360;29;20101;-66
2023/10/07 02:34:54;;;;;;;7.68;3.65;;;;;;;9.42;92.38;101390.81;4880618;29;20051;-67
2023/10/07 02:38:02;;;;;;;6.78;3.97;;;;;;;9.44;92.44;101375.94;4869258;29;20536;-66
2023/10/07 02:41:17;;;;;;;7.55;4.45;;;;;;;9.46;92.24;101366.31;4880650;29;20060;-67
2023/10/07 02:44:27;;;;;;;9.32;4.63;;;;;;;9.43;92.33;101376.84;4880461;29;20154;-66
2023/10/07 02:47:32;;;;;;;9.95;4.18;;;;;;;9.41;91.96;101359.53;4880461;29;20423;-66
2023/10/07 02:50:39;;;;;;;9.20;3.65;;;;;;;9.29;92.38;101358.22;4880335;29;20129;-66
2023/10/07 02:53:42;;;;;;;7.13;3.45;;;;;;;9.30;92.75;101365.13;4880213;29;20107;-66
2023/10/07 02:56:55;;;;;;;10.20;3.65;;;;;;;9.32;93.30;101369.41;4880248;29;20470;-66
2023/10/07 03:00:11;;;;;;;7.00;3.63;;;;;;;9.42;92.89;101358.66;4880179;29;20056;-66
2023/10/07 03:06:17;;;;;;;10.38;3.45;;;;;;;9.46;92.64;101365.47;4868779;29;20108;-67
2023/10/07 03:09:21;;;;;;;7.60;3.85;;;;;;;9.48;92.19;101366.28;4879942;29;20053;-67
2023/10/07 03:12:30;;;;;;;5.28;3.38;;;;;;;9.51;92.41;101380.06;4868343;29;20079;-67
2023/10/07 03:18:38;;;;;;;13.82;4.50;;;;;;;9.30;93.61;101355.53;4868434;29;20056;-66
2023/10/07 03:24:54;;;;;;;10.07;4.25;;;;;;;9.41;93.91;101363.03;4879835;29;20049;-66
2023/10/07 03:28:06;;;;;;;9.57;4.07;;;;;;;9.49;93.96;101365.34;4879718;29;20119;-66
2023/10/07 03:31:10;;;;;;;11.13;4.85;;;;;;;9.45;94.04;101353.31;4879655;29;20087;-67
2023/10/07 03:34:14;;;;;;;11.10;4.22;;;;;;;9.40;94.39;101369.13;4879384;29;20068;-67
2023/10/07 03:37:18;;;;;;;6.85;4.32;;;;;;;9.41;93.52;101368.25;4879552;29;20113;-67
2023/10/07 03:40:34;;;;;;;13.25;4.47;;;;;;;9.46;93.12;101371.53;4879524;29;20496;-66
2023/10/07 03:43:38;;;;;;;14.05;4.25;;;;;;;9.49;93.15;101371.44;4878594;29;20088;-66
2023/10/07 03:46:42;;;;;;;10.90;4.50;;;;;;;9.45;92.97;101362.00;4879345;29;20105;-67
2023/10/07 03:49:52;;;;;;;14.32;8.02;;;;;;;9.41;93.10;101365.63;4879175;29;20052;-66
2023/10/07 03:52:56;;;;;;;9.02;6.20;;;;;;;9.48;92.78;101374.94;4879250;29;20478;-66
2023/10/07 03:56:01;;;;;;;10.90;4.43;;;;;;;9.54;92.56;101379.13;4879269;29;20127;-66
2023/10/07 03:59:05;;;;;;;9.23;5.32;;;;;;;9.55;92.45;101379.06;4879333;29;20600;-66
2023/10/07 04:05:31;;;;;;;9.43;4.43;;;;;;;9.56;92.54;101377.28;4879065;29;20051;-66
2023/10/07 04:08:34;;;;;;;9.23;5.47;;;;;;;9.56;92.93;101372.06;4879002;29;20052;-66
2023/10/07 04:11:38;;;;;;;;;;;;;;;9.60;92.74;101360.59;4879193;29;20125;-67
2023/10/07 04:14:42;;;;;;;14.40;4.93;;;;;;;9.54;92.79;101343.41;4878919;29;19927;-67
2023/10/07 04:17:46;;;;;;;11.00;4.63;;;;;;;9.58;92.89;101348.53;4878717;29;20117;-66
2023/10/07 04:23:52;;;;;;;13.45;4.82;;;;;;;9.58;93.29;101348.53;4878741;29;20104;-67
2023/10/07 04:27:06;;;;;;;;;;;;;;;9.58;93.79;101351.16;4867717;29;20102;-67
2023/10/07 04:30:13;;;;;;;10.35;4.20;;;;;;;9.65;93.95;101344.78;4878717;29;19927;-66
2023/10/07 04:33:25;;;;;;;9.50;5.70;;;;;;;9.60;94.65;101351.91;4878755;29;20080;-66
2023/10/07 04:36:33;;;;;;;9.02;4.30;;;;;;;9.67;94.21;101350.81;4878656;29;20104;-66
2023/10/07 04:40:33;;;;;;;10.63;4.60;;;;;;;9.63;94.43;101347.44;4878489;29;20048;-67
2023/10/07 04:46:22;;;;;;;;;;;;;;;9.78;94.29;101353.88;4878979;29;20516;-66
2023/10/07 04:49:36;;;;;;;8.27;4.45;;;;;;;9.80;94.43;101341.63;4878399;29;20009;-66
2023/10/07 04:52:40;;;;;;;11.27;4.32;;;;;;;9.81;94.98;101338.09;4878539;29;20421;-67
2023/10/07 04:55:43;;;;;;;8.75;5.38;;;;;;;9.87;95.14;101344.88;4882514;29;20112;-66
2023/10/07 04:58:47;;;;;;;;;;;;;;;9.89;94.87;101337.81;4885278;29;20123;-66
2023/10/07 05:01:56;;;;;;;11.60;4.53;;;;;;;9.90;94.67;101343.00;4884639;29;20340;-66
2023/10/07 05:05:00;;;;;;;10.27;4.18;;;;;;;9.93;94.60;101342.91;4884681;29;20081;-66
2023/10/07 05:08:10;;;;;;;5.38;3.58;;;;;;;9.92;95.20;101349.03;4873079;29;20047;-66
2023/10/07 05:11:17;;;;;;;9.25;4.03;;;;;;;9.92;95.32;101342.94;4884202;29;20124;-66
2023/10/07 05:14:25;;;;;;;8.05;4.28;;;;;;;9.75;96.18;101341.78;4884391;29;20044;-66
2023/10/07 05:17:29;;;;;;;7.82;3.80;;;;;;;9.84;96.67;101360.66;4884548;29;20481;-67
2023/10/07 05:21:19;;;;;;;6.82;3.88;;;;;;;9.90;96.61;101345.63;4884366;29;20069;-67
2023/10/07 05:24:28;;;;;;;9.73;4.00;;;;;;;9.97;96.22;101352.31;4882753;29;20065;-66
2023/10/07 05:27:32;;;;;;;6.35;3.60;;;;;;;10.07;95.86;101355.44;4884644;29;20044;-66
2023/10/07 05:30:36;;;;;;;9.73;4.55;;;;;;;10.08;95.61;101351.91;4884355;29;20104;-66
2023/10/07 05:33:42;;;;;;;7.32;4.30;;;;;;;10.11;95.82;101358.78;4872885;29;20097;-66
2023/10/07 05:36:46;;;;;;;11.50;3.83;;;;;;;10.13;95.95;101346.53;4884355;29;20044;-66
2023/10/07 05:39:49;;;;;;;8.77;3.50;;;;;;;10.13;96.32;101351.75;4884231;29;20570;-66
2023/10/07 05:42:53;;;;;;;7.63;3.47;;;;;;;10.11;96.35;101356.19;4884158;29;20521;-66
2023/10/07 05:45:56;;;;;;;5.43;3.45;;;;;;;10.14;96.43;101363.91;4884281;29;20084;-66
2023/10/07 05:48:59;;;;;;;7.30;3.58;;;;;;;10.09;97.88;101358.00;4884455;29;20127;-69
2023/10/07 05:52:04;;;;;;;10.82;4.65;;;;;;;10.20;96.87;101361.91;4884272;29;20180;-66
2023/10/07 05:55:10;;;;;;;7.43;3.80;;;;;;;10.29;96.24;101354.69;4883291;29;20409;-67
2023/10/07 05:58:14;;;;;;;8.15;3.90;;;;;;;10.22;96.38;101347.03;4882812;29;20405;-67
2023/10/07 06:01:18;;;;;;;6.90;3.65;;;;;;;10.26;96.43;101347.81;4882454;29;20120;-66
2023/10/07 06:04:22;;;;;;;7.07;3.58;;;;;;;10.26;97.14;101339.97;4883209;29;20064;-66
2023/10/07 06:07:25;;;;;;;10.38;5.00;;;;;;;10.32;97.13;101346.72;4878367;29;20060;-67
2023/10/07 06:10:33;;;;;;;6.97;4.03;;;;;;;10.34;97.38;101343.16;4879034;29;20566;-66
2023/10/07 06:13:40;;;;;;;11.02;4.15;;;;;;;10.33;97.70;101351.88;4878853;29;20616;-65
2023/10/07 06:16:44;;;;;;;7.72;4.32;;;;;;;10.35;98.07;101355.31;4878973;29;20055;-67
2023/10/07 06:19:48;;;;;;;6.88;2.85;;;;;;;10.38;98.11;101357.78;4878963;29;20079;-67
2023/10/07 06:22:51;;;;;;;5.80;3.38;;;;;;;10.46;97.98;101350.53;4880378;29;20051;-67
2023/10/07 06:26:01;;;;;;;7.32;3.13;;;;;;;10.51;98.16;101352.09;4880297;29;20508;-66
2023/10/07 06:29:18;;;;;;;6.97;3.45;;;;;;;10.46;98.86;101355.75;4868285;29;20108;-66
2023/10/07 06:32:22;;;;;;;9.77;3.50;;;;;;;10.52;99.10;101364.25;4879881;29;20059;-66
2023/10/07 06:35:26;;;;;;;10.00;4.13;;;;;;;10.58;98.96;101369.25;4879647;29;20080;-67
2023/10/07 06:38:33;;;;;;;6.68;3.17;;;;;;;10.60;99.04;101368.28;4880050;29;20087;-67
2023/10/07 06:41:38;;;;;;;7.78;3.05;;;;;;;10.54;99.66;101378.13;4879478;29;20047;-67
2023/10/07 06:44:41;;;;;;;9.43;3.95;;;;;;;10.61;99.82;101384.81;4878751;29;20557;-67
2023/10/07 06:47:51;;;;;;;7.50;3.40;;;;;;;10.61;100.00;101390.06;4879497;29;20421;-67
2023/10/07 06:50:54;;;;;;;6.53;3.80;;;;;;;10.63;100.00;101393.47;4879844;29;20193;-68
2023/10/07 06:54:03;;;;;;;5.32;3.30;;;;;;;10.71;100.00;101394.00;4879614;29;20047;-67
2023/10/07 06:57:10;;;;;;;9.05;3.72;;;;;;;10.76;100.00;101384.22;4879990;29;20145;-69
2023/10/07 07:00:27;;;;;;;6.38;3.17;;;;;;;10.84;100.00;101387.38;4879615;29;20525;-69
2023/10/07 07:03:32;;;;;;;8.57;4.70;;;;;;;10.90;100.00;101387.13;4879388;29;20115;-68
2023/10/07 07:06:42;;;;;;;9.63;3.35;;;;;;;10.82;100.00;101378.75;4879550;29;20089;-70
2023/10/07 07:12:49;;;;;;;;;;;;;;;10.99;100.00;101378.06;4879388;29;20129;-70
2023/10/07 07:15:57;;;;;;;10.60;3.10;;;;;;;11.04;100.00;101372.66;4879240;29;20078;-69
2023/10/07 07:19:04;;;;;;;7.88;3.72;;;;;;;11.12;100.00;101378.44;4877807;29;20055;-70
2023/10/07 07:22:11;;;;;;;15.02;3.63;;;;;;;11.16;100.00;101387.84;4879002;29;20140;-70
2023/10/07 07:28:27;;;;;;;13.38;7.28;;;;;;;11.23;100.00;101412.88;4879107;29;20071;-70
2023/10/07 07:31:33;;;;;;;8.80;5.90;;;;;;;11.21;100.00;101412.09;4879084;29;20466;-70
2023/10/07 07:34:38;;;;;;;11.00;6.13;;;;;;;11.19;100.00;101413.91;4878696;29;20052;-69
2023/10/07 07:37:42;;;;;;;13.60;5.70;;;;;;;11.31;100.00;101413.41;4857208;29;20569;-69
2023/10/07 07:40:49;;;;;;;17.48;5.82;;;;;;;11.48;100.00;101409.22;4879179;29;20147;-68
2023/10/07 07:43:58;;;;;;;8.30;4.72;;;;;;;11.64;100.00;101408.50;4866967;29;20060;-68
2023/10/07 07:47:02;;;;;;;10.20;4.85;;;;;;;11.74;100.00;101397.63;4878024;29;20474;-68
2023/10/07 07:50:08;;;;;;;13.00;5.00;;;;;;;11.74;100.00;101395.91;4878512;29;20057;-68
2023/10/07 07:53:13;;;;;;;8.20;6.07;;;;;;;11.81;100.00;101407.81;4878488;29;20063;-67
2023/10/07 07:56:18;;;;;;;7.68;5.80;;;;;;;11.97;100.00;101401.94;4866963;29;20128;-68
2023/10/07 07:59:22;;;;;;;12.13;4.93;;;;;;;12.13;100.00;101413.44;4878202;29;20052;-68
2023/10/07 08:02:26;;;;;;;9.65;5.13;;;;;;;12.46;100.00;101408.44;4878102;29;20538;-69
2023/10/07 08:05:34;;;;;;;9.40;5.15;;;;;;;12.72;99.19;101415.09;4877972;29;20188;-69
2023/10/07 08:08:37;;;;;;;8.43;4.32;;;;;;;12.88;98.04;101406.50;4878210;29;20136;-68
2023/10/07 08:11:40;;;;;;;13.05;5.43;;;;;;;13.00;97.23;101419.88;4877949;29;20441;-68
2023/10/07 08:14:44;;;;;;;12.20;5.15;;;;;;;13.10;96.26;101407.16;4877754;29;20048;-68
2023/10/07 08:17:51;;;;;;;11.05;5.55;;;;;;;13.20;96.13;101413.66;4877837;29;20105;-68
2023/10/07 08:21:09;;;;;;;11.77;5.75;;;;;;;13.36;94.96;101412.94;4877612;29;20070;-68
2023/10/07 08:24:13;;;;;;;11.13;4.65;;;;;;;13.40;95.04;101411.84;4878012;29;20109;-68
2023/10/07 08:30:46;;;;;;;10.90;4.72;;;;;;;13.55;94.39;101403.19;4865617;29;20067;-68
2023/10/07 08:34:09;;;;;;;12.45;4.22;;;;;;;13.64;94.10;101401.88;4877657;29;20128;-69
2023/10/07 08:37:15;;;;;;;11.98;4.50;;;;;;;13.72;93.66;101411.09;4877270;29;20055;-67
2023/10/07 08:40:26;;;;;;;12.90;4.80;;;;;;;13.80;93.29;101401.94;4876946;29;20051;-68
2023/10/07 08:43:37;;;;;;;10.32;4.55;;;;;;;13.88;93.06;101410.28;4877633;29;20102;-67
2023/10/07 08:46:54;;;;;;;8.60;4.65;;;;;;;13.94;92.71;101399.44;4877117;29;20112;-67
2023/10/07 08:49:58;;;;;;;9.68;4.63;;;;;;;14.00;93.18;101404.38;4877855;29;20091;-67
2023/10/07 08:53:07;;;;;;;10.15;5.38;;;;;;;14.15;92.04;101402.72;4877650;29;20074;-67
2023/10/07 08:56:12;;;;;;;10.88;5.00;;;;;;;14.28;91.33;101397.66;4876613;29;20048;-68
2023/10/07 08:59:17;;;;;;;10.70;4.05;;;;;;;14.35;91.03;101399.03;4876943;29;20446;-67
2023/10/07 09:02:27;;;;;;;13.02;4.50;;;;;;;14.45;90.67;101400.22;4877776;29;20048;-68
2023/10/07 09:05:30;;;;;;;6.22;3.80;;;;;;;14.51;90.84;101399.91;4877513;29;20136;-67
2023/10/07 09:08:34;;;;;;;12.02;5.40;;;;;;;14.55;90.17;101404.09;4877578;29;20108;-68
2023/10/07 09:11:40;;;;;;;9.20;3.78;;;;;;;14.67;89.51;101404.34;4877462;29;20067;-68
2023/10/07 09:14:52;;;;;;;6.90;4.10;;;;;;;14.73;89.49;101383.78;4876202;29;20153;-68
2023/10/07 09:18:05;;;;;;;7.68;4.30;;;;;;;14.74;90.02;101384.63;4877533;29;20478;-67
2023/10/07 09:21:18;;;;;;;6.20;3.85;;;;;;;14.83;89.64;101378.84;4877297;29;20581;-68
2023/10/07 09:24:24;;;;;;;6.68;3.55;;;;;;;14.87;89.26;101375.13;4876415;29;20060;-68
2023/10/07 09:27:37;;;;;;;7.78;4.40;;;;;;;14.88;89.42;101398.72;4876306;29;20051;-68
2023/10/07 09:33:49;;;;;;;8.65;3.70;;;;;;;15.03;88.89;101386.50;4876997;29;20113;-69
2023/10/07 09:36:54;;;;;;;10.85;4.53;;;;;;;15.10;88.70;101403.63;4877145;29;20052;-68
2023/10/07 09:43:20;;;;;;;8.63;3.97;;;;;;;15.24;87.98;101384.38;4880357;29;20072;-68
2023/10/07 09:46:39;;;;;;;8.55;4.25;;;;;;;15.24;87.37;101394.06;4880955;29;20120;-68
2023/10/07 09:49:44;;;;;;;9.15;4.05;;;;;;;15.33;87.19;101393.53;4880516;29;20048;-67
2023/10/07 09:52:56;;;;;;;6.38;3.50;;;;;;;15.37;86.38;101379.25;4880720;29;20129;-68
2023/10/07 09:56:26;;;;;;;9.90;4.35;;;;;;;15.44;85.75;101399.03;4880559;29;20113;-68
2023/10/07 09:59:48;;;;;;;7.28;3.70;;;;;;;15.47;85.60;101390.94;4880807;29;20060;-69
2023/10/07 10:03:21;;;;;;;8.13;3.90;;;;;;;15.54;85.18;101397.56;4880524;29;20056;-68
2023/10/07 10:06:55;;;;;;;9.65;3.83;;;;;;;15.62;84.91;101388.34;4871820;29;20512;-68
2023/10/07 10:10:15;;;;;;;8.82;3.92;;;;;;;15.74;84.16;101398.19;4868444;29;20056;-69
2023/10/07 10:16:53;;;;;;;7.30;3.33;;;;;;;15.85;83.27;101393.09;4880062;29;20063;-67
2023/10/07 10:20:09;;;;;;;8.07;4.05;;;;;;;15.95;82.56;101390.75;4880083;29;20417;-68
2023/10/07 10:23:20;;;;;;;9.20;4.35;;;;;;;16.07;84.20;101390.00;4880186;29;20426;-66
2023/10/07 10:26:27;;;;;;;7.85;4.13;;;;;;;16.19;82.10;101386.63;4868204;29;20060;-67
2023/10/07 10:29:36;;;;;;;7.07;3.75;;;;;;;16.22;80.79;101369.75;4879996;29;20048;-67
2023/10/07 10:32:40;;;;;;;11.80;4.05;;;;;;;16.32;80.34;101375.31;4868213;29;20071;-71
2023/10/07 10:35:43;;;;;;;5.40;3.40;;;;;;;16.26;80.02;101374.72;4879682;29;20088;-67
2023/10/07 10:38:46;;;;;;;8.27;4.13;;;;;;;16.37;79.69;101368.78;4880237;29;20140;-67
2023/10/07 10:41:51;;;;;;;6.25;3.42;;;;;;;16.41;79.24;101372.94;4880576;29;20125;-67
2023/10/07 10:44:56;;;;;;;8.32;3.70;;;;;;;16.34;78.72;101381.34;4879031;29;20464;-65
2023/10/07 10:47:59;;;;;;;6.72;3.65;;;;;;;16.49;80.96;101375.06;4877629;29;20119;-75
2023/10/07 10:51:05;;;;;;;10.10;4.07;;;;;;;16.40;78.87;101373.00;4879671;29;20048;-67
2023/10/07 10:54:09;;;;;;;7.82;3.85;;;;;;;16.35;78.94;101383.88;4879080;29;20129;-67
2023/10/07 10:57:19;;;;;;;9.90;4.00;;;;;;;16.39;78.11;101374.81;4879729;29;20064;-66
2023/10/07 11:00:22;;;;;;;6.70;3.88;;;;;;;16.50;78.46;101377.63;4879287;29;20075;-68
2023/10/07 11:03:25;;;;;;;9.48;3.75;;;;;;;16.59;77.70;101372.69;4879430;29;20051;-68
2023/10/07 11:06:31;;;;;;;6.85;4.30;;;;;;;16.61;77.43;101362.88;4879530;29;20071;-67
2023/10/07 11:09:37;;;;;;;7.82;3.80;;;;;;;16.72;76.85;101355.97;4879150;29;20081;-67
2023/10/07 11:12:45;;;;;;;6.93;3.67;;;;;;;16.82;75.30;101356.25;4879061;29;20072;-67
2023/10/07 11:15:59;;;;;;;8.02;3.92;;;;;;;16.94;74.89;101336.97;4867896;29;20485;-68
2023/10/07 11:19:11;;;;;;;9.57;4.93;;;;;;;17.01;73.61;101345.31;4877930;29;20133;-68
2023/10/07 11:22:19;;;;;;;9.80;4.45;;;;;;;17.11;71.70;101335.00;4878192;29;20469;-67
2023/10/07 11:25:24;;;;;;;8.50;4.00;;;;;;;17.08;71.72;101335.19;4879432;29;20051;-65
2023/10/07 11:28:33;;;;;;;9.70;4.18;;;;;;;17.23;70.18;101333.31;4879570;29;20064;-67
2023/10/07 11:31:42;;;;;;;8.38;4.72;;;;;;;17.32;70.05;101341.47;4879409;29;20075;-68
2023/10/07 11:34:45;;;;;;;8.35;4.07;;;;;;;17.36;69.10;101335.03;4878894;29;20048;-67
2023/10/07 11:37:57;;;;;;;8.50;3.83;;;;;;;17.40;69.89;101331.22;4879381;29;20055;-67
2023/10/07 11:41:00;;;;;;;9.02;4.25;;;;;;;17.56;69.60;101338.13;4879004;29;20047;-68
2023/10/07 11:44:04;;;;;;;8.00;3.97;;;;;;;17.66;69.28;101325.94;4878896;29;20051;-67
2023/10/07 11:47:11;;;;;;;8.68;4.05;;;;;;;17.87;69.14;101313.91;4879298;29;20115;-67
2023/10/07 11:50:18;;;;;;;5.70;3.33;;;;;;;17.90;68.38;101323.44;4878731;29;20051;-67
2023/10/07 11:53:25;;;;;;;8.20;3.50;;;;;;;17.99;67.58;101321.91;4878938;29;20128;-67
2023/10/07 11:56:29;;;;;;;6.80;3.90;;;;;;;18.17;67.49;101317.13;4867202;29;20186;-67
2023/10/07 11:59:33;;;;;;;6.40;3.67;;;;;;;18.38;66.29;101338.53;4877803;29;20055;-67
2023/10/07 12:02:39;;;;;;;9.18;3.85;;;;;;;18.46;65.77;101331.75;4878693;29;20055;-67
2023/10/07 12:05:43;;;;;;;7.05;3.70;;;;;;;18.43;65.49;101324.03;4877989;29;20116;-67
2023/10/07 12:08:47;;;;;;;6.63;3.88;;;;;;;18.49;64.78;101328.88;4878525;29;20105;-67
2023/10/07 12:11:53;;;;;;;6.35;3.58;;;;;;;18.68;64.89;101309.00;4878511;29;20064;-67
2023/10/07 12:14:56;;;;;;;6.18;2.90;;;;;;;18.78;64.78;101318.81;4878509;29;20044;-66
2023/10/07 12:18:02;;;;;;;8.85;3.85;;;;;;;18.87;64.23;101317.28;4878376;29;20093;-66
2023/10/07 12:21:11;;;;;;;9.50;3.95;;;;;;;19.01;64.03;101317.09;4878212;29;20051;-67
2023/10/07 12:24:18;;;;;;;8.90;3.85;;;;;;;19.17;63.52;101306.16;4878510;29;20413;-67
2023/10/07 12:27:21;;;;;;;7.30;3.17;;;;;;;19.13;62.99;101302.06;4878041;29;20077;-67
2023/10/07 12:30:26;;;;;;;7.25;3.70;;;;;;;19.39;62.80;101305.38;4878364;29;20442;-66
2023/10/07 12:33:29;;;;;;;6.38;4.10;;;;;;;19.53;62.16;101309.63;4877874;29;20093;-68
2023/10/07 12:36:33;;;;;;;5.75;3.47;;;;;;;19.51;62.58;101311.56;4877032;29;20643;-66
2023/10/07 12:39:39;;;;;;;9.18;3.95;;;;;;;19.59;62.14;101317.13;4876914;29;20394;-67
2023/10/07 12:42:43;;;;;;;6.32;3.28;;;;;;;19.97;61.18;101302.66;4877181;29;20055;-67
2023/10/07 12:45:47;;;;;;;7.82;3.70;;;;;;;20.40;60.30;101299.22;4877450;29;20060;-67
2023/10/07 12:48:50;;;;;;;7.40;3.40;;;;;;;20.64;59.16;101305.22;4877470;29;20047;-66
2023/10/07 12:51:54;;;;;;;6.90;3.72;;;;;;;21.34;56.98;101300.25;4877758;29;20068;-67
2023/10/07 12:55:14;;;;;;;7.57;4.35;;;;;;;22.35;54.73;101307.44;4878527;29;20512;-67
2023/10/07 12:58:26;;;;;;;5.63;3.65;;;;;;;23.10;51.71;101291.72;4878767;29;20063;-67
2023/10/07 13:01:32;;;;;;;5.70;3.63;;;;;;;25.26;45.24;101292.88;4878212;29;20048;-67
2023/10/07 13:04:35;;;;;;;7.97;4.22;;;;;;;25.74;44.59;101290.63;4877938;29;20048;-67
2023/10/07 13:07:42;;;;;;;8.10;3.97;;;;;;;26.66;41.65;101294.28;4877672;29;20072;-68
2023/10/07 13:10:45;;;;;;;6.72;4.45;;;;;;;27.53;39.63;101290.00;4877397;29;20127;-67
2023/10/07 13:13:48;;;;;;;7.28;4.35;;;;;;;28.48;38.36;101298.00;4877657;29;20048;-67
2023/10/07 13:16:58;;;;;;;8.35;5.10;;;;;;;26.98;40.09;101295.28;4880036;29;20131;-68
2023/10/07 13:20:07;;;;;;;6.20;4.05;;;;;;;27.43;39.54;101288.53;4881386;29;20188;-67
2023/10/07 13:23:11;;;;;;;9.57;3.83;;;;;;;28.13;38.19;101285.94;4881361;29;20052;-66
2023/10/07 13:26:15;;;;;;;5.65;3.70;;;;;;;28.52;37.45;101275.09;4881526;29;20048;-67
2023/10/07 13:29:18;;;;;;;6.40;3.75;;;;;;;27.38;39.51;101275.66;4881370;29;20048;-68
2023/10/07 13:32:21;;;;;;;5.72;3.53;;;;;;;28.19;37.86;101279.84;4881502;29;20101;-68
2023/10/07 13:35:27;;;;;;;6.57;3.70;;;;;;;29.30;36.39;101274.94;4881162;29;20132;-67
2023/10/07 13:38:30;;;;;;;6.47;3.88;;;;;;;28.20;38.02;101275.28;4881153;29;20096;-70
2023/10/07 13:41:38;;;;;;;6.45;3.38;;;;;;;27.43;39.87;101262.53;4881157;29;20056;-69
2023/10/07 13:44:41;;;;;;;16.55;4.15;;;;;;;27.92;38.86;101262.38;4881306;29;20097;-66
2023/10/07 13:47:44;;;;;;;7.18;3.97;;;;;;;27.12;39.78;101271.31;4881003;29;20104;-68
2023/10/07 13:50:49;;;;;;;8.63;3.80;;;;;;;26.14;42.71;101268.53;4880838;29;20048;-67
2023/10/07 13:57:22;;;;;;;6.13;4.13;;;;;;;23.54;49.40;101262.69;4880648;29;20059;-68
2023/10/07 14:00:36;;;;;;;8.25;3.85;;;;;;;23.27;50.03;101264.34;4881112;29;20100;-68
2023/10/07 14:03:40;;;;;;;6.63;4.18;;;;;;;23.46;49.96;101263.44;4880731;29;20048;-68
2023/10/07 14:06:43;;;;;;;10.68;3.63;;;;;;;23.78;49.21;101257.69;4880913;29;20097;-67
2023/10/07 14:09:49;;;;;;;6.72;3.22;;;;;;;22.94;51.22;101271.84;4880523;29;20088;-68
2023/10/07 14:12:52;;;;;;;9.38;4.57;;;;;;;23.48;50.18;101249.94;4880348;29;20112;-69
2023/10/07 14:15:57;;;;;;;5.30;3.13;;;;;;;24.26;48.70;101245.88;4880490;29;20505;-68
2023/10/07 14:19:00;;;;;;;8.98;3.25;;;;;;;23.64;50.06;101245.66;4880375;29;20048;-68
2023/10/07 14:22:04;;;;;;;6.65;3.47;;;;;;;23.33;51.01;101250.41;4880395;29;20155;-68
2023/10/07 14:25:07;;;;;;;7.50;3.70;;;;;;;23.06;51.54;101263.66;4880668;29;20136;-68
2023/10/07 14:28:11;;;;;;;6.20;3.17;;;;;;;23.31;50.97;101255.03;4879610;29;20222;-68
2023/10/07 14:31:18;;;;;;;6.80;3.75;;;;;;;23.85;50.30;101256.09;4880241;29;20052;-68
2023/10/07 14:34:21;;;;;;;6.68;3.85;;;;;;;23.53;51.43;101261.00;4880217;29;20105;-69
2023/10/07 14:37:25;;;;;;;8.50;4.18;;;;;;;22.97;52.69;101252.03;4880423;29;20144;-68
2023/10/07 14:40:36;;;;;;;5.55;3.30;;;;;;;22.99;52.79;101252.72;4880150;29;20180;-68
2023/10/07 14:43:39;;;;;;;6.80;3.67;;;;;;;22.91;53.16;101253.44;4880272;29;20088;-69
2023/10/07 14:46:44;;;;;;;9.63;3.67;;;;;;;22.85;53.84;101254.00;4880299;29;20068;-68
2023/10/07 14:49:47;;;;;;;12.48;3.92;;;;;;;23.55;52.46;101249.22;4879894;29;20048;-68
2023/10/07 14:52:51;;;;;;;6.68;4.20;;;;;;;22.93;53.19;101246.13;4880029;29;20056;-68
2023/10/07 14:55:54;;;;;;;6.75;3.30;;;;;;;23.41;53.45;101245.16;4879565;29;20181;-68
2023/10/07 14:58:59;;;;;;;8.85;3.58;;;;;;;24.31;50.10;101243.59;4879749;29;20048;-68
2023/10/07 15:02:02;;;;;;;6.82;3.05;;;;;;;24.02;50.89;101245.59;4867951;29;20573;-68
2023/10/07 15:05:08;;;;;;;6.45;3.38;;;;;;;23.09;53.37;101244.72;4868233;29;20044;-68
2023/10/07 15:08:13;;;;;;;5.82;3.35;;;;;;;22.63;55.16;101239.13;4879620;29;20178;-69
2023/10/07 15:11:18;;;;;;;9.30;4.38;;;;;;;22.74;54.86;101233.63;4879276;29;20055;-68
2023/10/07 15:14:22;;;;;;;6.93;3.75;;;;;;;22.36;56.05;101236.31;4879421;29;20048;-67
2023/10/07 15:17:25;;;;;;;12.60;7.75;;;;;;;22.02;57.12;101242.84;4879246;29;20100;-67
2023/10/07 15:20:30;;;;;;;9.35;5.75;;;;;;;21.78;58.35;101232.53;4879485;29;20089;-67